Time,TemperatureF,DewpointF,PressureIn,WindDirection,WindDirectionDegrees,WindSpeedMPH,WindSpeedGustMPH,Humidity,HourlyPrecipIn,Conditions,Clouds,dailyrainin,SoftwareType,DateUTC
2013-04-03 00:02:00,32.4,29.5,30.63,SW,225,0.0,0.0,89,0.00,,,0.00,meteohub,2013-04-03 06:02:00,
2013-04-03 00:07:00,32.4,29.5,30.63,SW,225,0.0,0.0,89,0.00,,,0.00,meteohub,2013-04-03 06:07:00,
2013-04-03 00:12:00,32.4,29.5,30.63,SW,225,0.0,0.0,89,0.00,,,0.00,meteohub,2013-04-03 06:12:00,
2013-04-03 00:17:00,32.0,29.1,30.63,SW,225,0.0,0.0,89,0.00,,,0.00,meteohub,2013-04-03 06:17:00,
2013-04-03 00:22:00,31.6,28.8,30.63,SW,225,0.0,0.0,89,0.00,,,0.00,meteohub,2013-04-03 06:22:00,
2013-04-03 00:28:00,31.1,28.2,30.63,SW,225,0.0,0.0,89,0.00,,,0.00,meteohub,2013-04-03 06:28:00,
2013-04-03 00:33:00,30.9,28.0,30.63,SW,225,0.0,0.0,89,0.00,,,0.00,meteohub,2013-04-03 06:33:00,
2013-04-03 00:38:00,30.6,27.7,30.63,SW,225,0.0,0.0,89,0.00,,,0.00,meteohub,2013-04-03 06:38:00,
2013-04-03 00:43:00,30.4,27.5,30.63,SW,225,0.0,0.0,89,0.00,,,0.00,meteohub,2013-04-03 06:43:00,
2013-04-03 00:48:00,30.4,27.5,30.64,SW,225,0.0,0.0,89,0.00,,,0.00,meteohub,2013-04-03 06:48:00,
2013-04-03 00:54:00,30.4,27.5,30.63,SW,225,0.0,0.0,89,0.00,,,0.00,meteohub,2013-04-03 06:54:00,
2013-04-03 00:59:00,30.6,27.7,30.63,SW,225,0.0,0.0,89,0.00,,,0.00,meteohub,2013-04-03 06:59:00,
2013-04-03 01:04:00,30.6,28.0,30.63,SW,225,0.0,0.0,90,0.00,,,0.00,meteohub,2013-04-03 07:04:00,
2013-04-03 01:09:00,30.6,28.0,30.63,SW,225,0.0,0.0,90,0.00,,,0.00,meteohub,2013-04-03 07:09:00,
2013-04-03 01:14:00,30.6,28.0,30.64,SW,225,0.0,0.0,90,0.00,,,0.00,meteohub,2013-04-03 07:14:00,
2013-04-03 01:20:00,30.7,28.2,30.64,SW,225,0.0,0.0,90,0.00,,,0.00,meteohub,2013-04-03 07:20:00,
2013-04-03 01:25:00,30.7,28.2,30.64,SW,225,0.0,0.0,90,0.00,,,0.00,meteohub,2013-04-03 07:25:00,
2013-04-03 01:31:00,30.9,28.6,30.64,SW,225,0.0,0.0,91,0.00,,,0.00,meteohub,2013-04-03 07:31:00,
2013-04-03 01:36:00,30.9,28.6,30.63,SW,225,0.0,0.0,91,0.00,,,0.00,meteohub,2013-04-03 07:36:00,
2013-04-03 01:41:00,30.9,28.6,30.63,SW,225,0.0,0.0,91,0.00,,,0.00,meteohub,2013-04-03 07:41:00,
2013-04-03 01:46:00,30.9,28.6,30.63,SW,225,0.0,0.0,91,0.00,,,0.00,meteohub,2013-04-03 07:46:00,
2013-04-03 01:51:00,31.1,28.8,30.64,SW,225,0.0,0.0,91,0.00,,,0.00,meteohub,2013-04-03 07:51:00,
2013-04-03 01:56:00,31.1,28.8,30.63,SW,225,0.0,0.0,91,0.00,,,0.00,meteohub,2013-04-03 07:56:00,
2013-04-03 02:01:00,31.1,29.1,30.63,SW,225,0.0,0.0,92,0.00,,,0.00,meteohub,2013-04-03 08:01:00,
2013-04-03 02:07:00,31.1,29.1,30.63,SW,225,0.0,0.0,92,0.00,,,0.00,meteohub,2013-04-03 08:07:00,
2013-04-03 02:12:00,31.3,29.3,30.63,SW,225,0.0,0.0,92,0.00,,,0.00,meteohub,2013-04-03 08:12:00,
2013-04-03 02:17:00,31.3,29.3,30.63,SW,225,0.0,0.0,92,0.00,,,0.00,meteohub,2013-04-03 08:17:00,
2013-04-03 02:22:00,31.3,29.3,30.63,SW,225,0.0,0.0,92,0.00,,,0.00,meteohub,2013-04-03 08:22:00,
2013-04-03 02:27:00,31.3,29.3,30.63,SW,225,0.0,0.0,92,0.00,,,0.00,meteohub,2013-04-03 08:27:00,
2013-04-03 02:33:00,31.3,29.3,30.63,SW,225,0.0,0.0,92,0.00,,,0.00,meteohub,2013-04-03 08:33:00,
2013-04-03 02:38:00,31.3,29.3,30.63,SW,225,0.0,0.0,92,0.00,,,0.00,meteohub,2013-04-03 08:38:00,
2013-04-03 02:43:00,31.3,29.5,30.63,SW,225,0.0,0.0,93,0.00,,,0.00,meteohub,2013-04-03 08:43:00,
2013-04-03 02:48:00,31.3,29.5,30.63,SW,225,0.0,0.0,93,0.00,,,0.00,meteohub,2013-04-03 08:48:00,
2013-04-03 02:54:00,31.3,29.5,30.63,SW,225,0.0,0.0,93,0.00,,,0.00,meteohub,2013-04-03 08:54:00,
2013-04-03 02:59:00,31.3,29.5,30.63,SW,225,0.0,0.0,93,0.00,,,0.00,meteohub,2013-04-03 08:59:00,
2013-04-03 03:04:00,31.3,29.5,30.63,SW,225,0.0,0.0,93,0.00,,,0.00,meteohub,2013-04-03 09:04:00,
2013-04-03 03:09:00,31.3,29.5,30.63,SW,225,0.0,0.0,93,0.00,,,0.00,meteohub,2013-04-03 09:09:00,
2013-04-03 03:14:00,31.3,29.5,30.62,SW,225,0.0,0.0,93,0.00,,,0.00,meteohub,2013-04-03 09:14:00,
2013-04-03 03:19:00,31.1,29.3,30.63,SW,225,0.0,0.0,93,0.00,,,0.00,meteohub,2013-04-03 09:19:00,
2013-04-03 03:24:00,31.1,29.3,30.62,SW,225,0.0,0.0,93,0.00,,,0.00,meteohub,2013-04-03 09:24:00,
2013-04-03 03:30:00,30.9,29.1,30.62,SW,225,0.0,0.0,93,0.00,,,0.00,meteohub,2013-04-03 09:30:00,
2013-04-03 03:35:00,30.7,28.9,30.63,SW,225,0.0,0.0,93,0.00,,,0.00,meteohub,2013-04-03 09:35:00,
2013-04-03 03:40:00,30.6,28.6,30.63,SW,225,0.0,0.0,92,0.00,,,0.00,meteohub,2013-04-03 09:40:00,
2013-04-03 03:45:00,30.4,28.4,30.63,SW,225,0.0,0.0,92,0.00,,,0.00,meteohub,2013-04-03 09:45:00,
2013-04-03 03:50:00,30.0,28.2,30.62,SW,225,0.0,0.0,93,0.00,,,0.00,meteohub,2013-04-03 09:50:00,
2013-04-03 03:55:00,29.7,27.9,30.62,SW,225,0.0,0.0,93,0.00,,,0.00,meteohub,2013-04-03 09:55:00,
2013-04-03 04:01:00,29.5,27.5,30.62,SW,225,0.0,0.0,92,0.00,,,0.00,meteohub,2013-04-03 10:01:00,
2013-04-03 04:06:00,29.5,27.5,30.62,SW,225,0.0,0.0,92,0.00,,,0.00,meteohub,2013-04-03 10:06:00,
2013-04-03 04:12:00,28.8,26.8,30.62,SW,225,0.0,0.0,92,0.00,,,0.00,meteohub,2013-04-03 10:12:00,
2013-04-03 04:17:00,28.6,26.6,30.63,SW,225,0.0,0.0,92,0.00,,,0.00,meteohub,2013-04-03 10:17:00,
2013-04-03 04:22:00,28.4,26.1,30.63,SW,225,0.0,0.0,91,0.00,,,0.00,meteohub,2013-04-03 10:22:00,
2013-04-03 04:27:00,28.6,26.6,30.63,SW,225,0.0,0.0,92,0.00,,,0.00,meteohub,2013-04-03 10:27:00,
2013-04-03 04:32:00,28.8,26.8,30.63,SW,225,0.0,0.0,92,0.00,,,0.00,meteohub,2013-04-03 10:32:00,
2013-04-03 04:37:00,28.9,27.0,30.63,SW,225,0.0,0.0,92,0.00,,,0.00,meteohub,2013-04-03 10:37:00,
2013-04-03 04:42:00,29.1,27.1,30.63,SW,225,0.0,0.0,92,0.00,,,0.00,meteohub,2013-04-03 10:42:00,
2013-04-03 04:48:00,29.1,27.1,30.63,SW,225,0.0,0.0,92,0.00,,,0.00,meteohub,2013-04-03 10:48:00,
2013-04-03 04:53:00,29.3,27.5,30.63,SW,225,0.0,0.0,93,0.00,,,0.00,meteohub,2013-04-03 10:53:00,
2013-04-03 04:58:00,29.5,27.7,30.64,SW,225,0.0,0.0,93,0.00,,,0.00,meteohub,2013-04-03 10:58:00,
2013-04-03 05:03:00,29.7,27.9,30.64,SW,225,0.0,0.0,93,0.00,,,0.00,meteohub,2013-04-03 11:03:00,
2013-04-03 05:09:00,29.8,28.0,30.64,SW,225,0.0,0.0,93,0.00,,,0.00,meteohub,2013-04-03 11:09:00,
2013-04-03 05:14:00,30.0,28.2,30.64,SW,225,0.0,0.0,93,0.00,,,0.00,meteohub,2013-04-03 11:14:00,
2013-04-03 05:19:00,30.0,28.6,30.64,SW,225,0.0,0.0,94,0.00,,,0.00,meteohub,2013-04-03 11:19:00,
2013-04-03 05:24:00,30.2,28.4,30.64,SW,225,0.0,0.0,93,0.00,,,0.00,meteohub,2013-04-03 11:24:00,
2013-04-03 05:29:00,30.2,28.4,30.64,SW,225,0.0,0.0,93,0.00,,,0.00,meteohub,2013-04-03 11:29:00,
2013-04-03 05:34:00,30.2,28.4,30.64,SW,225,0.0,0.0,93,0.00,,,0.00,meteohub,2013-04-03 11:34:00,
2013-04-03 05:39:00,30.2,28.4,30.64,SW,225,0.0,0.0,93,0.00,,,0.00,meteohub,2013-04-03 11:39:00,
2013-04-03 05:45:00,30.4,28.6,30.64,SW,225,0.0,0.0,93,0.00,,,0.00,meteohub,2013-04-03 11:45:00,
2013-04-03 05:50:00,30.6,28.8,30.64,SW,225,0.0,0.0,93,0.00,,,0.00,meteohub,2013-04-03 11:50:00,
2013-04-03 05:55:00,30.6,28.8,30.64,SW,225,0.0,0.0,93,0.00,,,0.00,meteohub,2013-04-03 11:55:00,
2013-04-03 06:00:00,30.6,28.8,30.64,SW,225,0.0,0.0,93,0.00,,,0.00,meteohub,2013-04-03 12:00:00,
2013-04-03 06:05:00,30.6,28.8,30.64,SW,225,0.0,0.0,93,0.00,,,0.00,meteohub,2013-04-03 12:05:00,
2013-04-03 06:10:00,30.2,28.4,30.64,SW,225,0.0,0.0,93,0.00,,,0.00,meteohub,2013-04-03 12:10:00,
2013-04-03 06:15:00,30.2,28.4,30.64,SW,225,0.0,0.0,93,0.00,,,0.00,meteohub,2013-04-03 12:15:00,
2013-04-03 06:20:00,30.0,28.6,30.64,SW,225,0.0,0.0,94,0.00,,,0.00,meteohub,2013-04-03 12:20:00,
2013-04-03 06:25:00,29.8,28.4,30.64,SW,225,0.0,0.0,94,0.00,,,0.00,meteohub,2013-04-03 12:25:00,
2013-04-03 06:31:00,29.5,27.7,30.64,SW,225,0.0,0.0,93,0.00,,,0.00,meteohub,2013-04-03 12:31:00,
2013-04-03 06:36:00,29.1,27.3,30.64,SW,225,0.0,0.0,93,0.00,,,0.00,meteohub,2013-04-03 12:36:00,
2013-04-03 06:41:00,28.9,27.1,30.64,SW,225,0.0,0.0,93,0.00,,,0.00,meteohub,2013-04-03 12:41:00,
2013-04-03 06:47:00,28.6,26.8,30.64,SW,225,0.0,0.0,93,0.00,,,0.00,meteohub,2013-04-03 12:47:00,
2013-04-03 06:52:00,28.2,25.2,30.64,SW,225,0.0,0.0,88,0.00,,,0.00,meteohub,2013-04-03 12:52:00,
2013-04-03 06:57:00,27.9,24.8,30.65,SW,225,0.0,0.0,88,0.00,,,0.00,meteohub,2013-04-03 12:57:00,
2013-04-03 07:02:00,27.3,23.9,30.65,SW,225,0.0,0.0,87,0.00,,,0.00,meteohub,2013-04-03 13:02:00,
2013-04-03 07:07:00,27.0,23.5,30.65,SW,225,0.0,0.0,87,0.00,,,0.00,meteohub,2013-04-03 13:07:00,
2013-04-03 07:13:00,26.8,23.2,30.65,SW,225,0.0,0.0,86,0.00,,,0.00,meteohub,2013-04-03 13:13:00,
2013-04-03 07:18:00,26.8,23.2,30.65,SW,225,0.0,0.0,86,0.00,,,0.00,meteohub,2013-04-03 13:18:00,
2013-04-03 07:23:00,26.8,23.2,30.66,SW,225,0.0,0.0,86,0.00,,,0.00,meteohub,2013-04-03 13:23:00,
2013-04-03 07:28:00,27.0,23.4,30.66,SW,225,0.0,0.0,86,0.00,,,0.00,meteohub,2013-04-03 13:28:00,
2013-04-03 07:33:00,27.5,24.1,30.66,SW,225,0.0,0.0,87,0.00,,,0.00,meteohub,2013-04-03 13:33:00,
2013-04-03 07:38:00,27.9,24.4,30.66,SW,225,0.0,0.0,87,0.00,,,0.00,meteohub,2013-04-03 13:38:00,
2013-04-03 07:43:00,28.2,24.8,30.66,SW,225,0.0,0.0,87,0.00,,,0.00,meteohub,2013-04-03 13:43:00,
2013-04-03 07:49:00,28.8,26.8,30.66,SW,225,0.0,0.0,92,0.00,,,0.00,meteohub,2013-04-03 13:49:00,
2013-04-03 07:54:00,29.3,27.3,30.66,SW,225,0.0,0.0,92,0.00,,,0.00,meteohub,2013-04-03 13:54:00,
2013-04-03 07:59:00,29.7,27.7,30.66,SW,225,0.0,0.0,92,0.00,,,0.00,meteohub,2013-04-03 13:59:00,
2013-04-03 08:04:00,29.8,27.9,30.66,SW,225,0.0,0.0,92,0.00,,,0.00,meteohub,2013-04-03 14:04:00,
2013-04-03 08:09:00,30.4,28.0,30.66,SW,225,0.0,0.0,91,0.00,,,0.00,meteohub,2013-04-03 14:09:00,
2013-04-03 08:15:00,30.6,28.2,30.66,SW,225,0.0,0.0,91,0.00,,,0.00,meteohub,2013-04-03 14:15:00,
2013-04-03 08:20:00,30.9,28.6,30.66,SW,225,0.0,0.0,91,0.00,,,0.00,meteohub,2013-04-03 14:20:00,
2013-04-03 08:25:00,31.1,28.8,30.66,SW,225,0.0,0.0,91,0.00,,,0.00,meteohub,2013-04-03 14:25:00,
2013-04-03 08:30:00,31.5,29.1,30.66,SW,225,0.0,0.0,91,0.00,,,0.00,meteohub,2013-04-03 14:30:00,
2013-04-03 08:35:00,31.8,29.5,30.66,West,270,0.0,0.0,91,0.00,,,0.00,meteohub,2013-04-03 14:35:00,
2013-04-03 08:40:00,32.2,29.7,30.66,West,270,0.0,0.0,90,0.00,,,0.00,meteohub,2013-04-03 14:40:00,
2013-04-03 08:46:00,32.7,30.2,30.66,West,270,0.0,0.0,90,0.00,,,0.00,meteohub,2013-04-03 14:46:00,
2013-04-03 08:51:00,33.1,30.2,30.66,West,270,0.0,0.0,89,0.00,,,0.00,meteohub,2013-04-03 14:51:00,
2013-04-03 08:56:00,33.3,30.4,30.66,West,270,0.0,0.0,89,0.00,,,0.00,meteohub,2013-04-03 14:56:00,
2013-04-03 09:01:00,33.6,30.4,30.67,West,270,0.0,0.0,88,0.00,,,0.00,meteohub,2013-04-03 15:01:00,
2013-04-03 09:06:00,33.8,30.4,30.67,West,270,0.0,0.0,87,0.00,,,0.00,meteohub,2013-04-03 15:06:00,
2013-04-03 09:12:00,34.0,30.2,30.66,West,270,0.0,0.0,86,0.00,,,0.00,meteohub,2013-04-03 15:12:00,
2013-04-03 09:17:00,34.3,30.6,30.66,SW,225,0.0,0.0,86,0.00,,,0.00,meteohub,2013-04-03 15:17:00,
2013-04-03 09:22:00,34.9,31.1,30.67,South,180,0.0,0.0,86,0.00,,,0.00,meteohub,2013-04-03 15:22:00,
2013-04-03 09:27:00,36.0,31.8,30.66,South,180,0.0,0.0,85,0.00,,,0.00,meteohub,2013-04-03 15:27:00,
2013-04-03 09:32:00,36.7,32.4,30.67,South,180,0.0,0.0,84,0.00,,,0.00,meteohub,2013-04-03 15:32:00,
2013-04-03 09:37:00,37.2,32.5,30.66,South,180,0.0,1.0,83,0.00,,,0.00,meteohub,2013-04-03 15:37:00,
2013-04-03 09:42:00,37.9,34.2,30.67,SW,225,2.0,2.0,86,0.00,,,0.00,meteohub,2013-04-03 15:42:00,
2013-04-03 09:47:00,37.9,34.2,30.67,West,270,2.0,2.0,86,0.00,,,0.00,meteohub,2013-04-03 15:47:00,
2013-04-03 09:52:00,37.9,33.8,30.66,SE,135,2.0,3.0,85,0.00,,,0.00,meteohub,2013-04-03 15:52:00,
2013-04-03 09:58:00,37.8,33.6,30.67,SE,135,2.0,3.0,85,0.00,,,0.00,meteohub,2013-04-03 15:58:00,
2013-04-03 10:03:00,37.8,33.4,30.67,SE,135,1.0,3.0,84,0.00,,,0.00,meteohub,2013-04-03 16:03:00,
2013-04-03 10:08:00,38.1,34.0,30.67,South,180,0.0,2.0,85,0.00,,,0.00,meteohub,2013-04-03 16:08:00,
2013-04-03 10:14:00,38.5,34.3,30.67,South,180,2.0,2.0,85,0.00,,,0.00,meteohub,2013-04-03 16:14:00,
2013-04-03 10:19:00,38.7,34.2,30.66,South,180,2.0,2.0,84,0.00,,,0.00,meteohub,2013-04-03 16:19:00,
2013-04-03 10:24:00,39.7,35.2,30.66,South,180,2.0,2.0,84,0.00,,,0.00,meteohub,2013-04-03 16:24:00,
2013-04-03 10:30:00,40.6,36.0,30.67,SE,135,2.0,2.0,83,0.00,,,0.00,meteohub,2013-04-03 16:30:00,
2013-04-03 10:35:00,42.1,37.2,30.66,South,180,2.0,2.0,83,0.00,,,0.00,meteohub,2013-04-03 16:35:00,
2013-04-03 10:41:00,42.3,36.1,30.66,NE,45,3.0,3.0,79,0.00,,,0.00,meteohub,2013-04-03 16:41:00,
2013-04-03 10:46:00,42.1,36.0,30.66,NE,45,3.0,3.0,79,0.01,,,0.01,meteohub,2013-04-03 16:46:00,
2013-04-03 10:51:00,42.1,36.3,30.66,NE,45,3.0,3.0,80,0.07,,,0.07,meteohub,2013-04-03 16:51:00,
2013-04-03 10:56:00,42.3,36.9,30.66,NE,45,3.0,3.0,81,0.11,,,0.11,meteohub,2013-04-03 16:56:00,
2013-04-03 11:02:00,42.6,37.8,30.65,NE,45,4.0,4.0,83,0.17,,,0.17,meteohub,2013-04-03 17:02:00,
2013-04-03 11:07:00,43.0,37.2,30.65,South,180,2.0,4.0,80,0.21,,,0.21,meteohub,2013-04-03 17:07:00,
2013-04-03 11:12:00,43.5,37.0,30.65,West,270,3.0,4.0,78,0.24,,,0.24,meteohub,2013-04-03 17:12:00,
2013-04-03 11:17:00,44.1,37.6,30.65,East,90,3.0,4.0,78,0.27,,,0.27,meteohub,2013-04-03 17:17:00,
2013-04-03 11:22:00,44.2,37.2,30.65,SE,135,4.0,4.0,76,0.30,,,0.30,meteohub,2013-04-03 17:22:00,
2013-04-03 11:27:00,44.8,37.8,30.65,SE,135,2.0,5.0,76,0.30,,,0.30,meteohub,2013-04-03 17:27:00,
2013-04-03 11:33:00,46.0,39.2,30.64,NE,45,4.0,5.0,77,0.31,,,0.31,meteohub,2013-04-03 17:33:00,
2013-04-03 11:38:00,46.8,39.6,30.65,SW,225,2.0,5.0,76,0.31,,,0.31,meteohub,2013-04-03 17:38:00,
2013-04-03 11:43:00,48.0,40.8,30.64,SW,225,2.0,4.0,76,0.31,,,0.31,meteohub,2013-04-03 17:43:00,
2013-04-03 11:50:00,48.9,40.6,30.64,South,180,4.0,4.0,73,0.28,,,0.31,meteohub,2013-04-03 17:50:00,
2013-04-03 11:56:00,48.9,38.8,30.64,SW,225,4.0,5.0,68,0.17,,,0.31,meteohub,2013-04-03 17:56:00,
2013-04-03 12:01:00,49.3,39.2,30.64,South,180,3.0,6.0,68,0.13,,,0.31,meteohub,2013-04-03 18:01:00,
2013-04-03 12:07:00,49.3,39.2,30.64,South,180,3.0,6.0,68,0.08,,,0.31,meteohub,2013-04-03 18:07:00,
2013-04-03 12:12:00,50.2,39.6,30.64,SW,225,4.0,6.0,67,0.06,,,0.31,meteohub,2013-04-03 18:12:00,
2013-04-03 12:17:00,50.7,39.7,30.63,West,270,2.0,4.0,66,0.04,,,0.31,meteohub,2013-04-03 18:17:00,
2013-04-03 12:23:00,51.4,39.2,30.63,SW,225,4.0,4.0,63,0.01,,,0.31,meteohub,2013-04-03 18:23:00,
2013-04-03 12:29:00,51.8,39.2,30.63,SE,135,4.0,4.0,62,0.01,,,0.31,meteohub,2013-04-03 18:29:00,
2013-04-03 12:35:00,51.6,38.1,30.63,East,90,6.0,6.0,60,0.00,,,0.31,meteohub,2013-04-03 18:35:00,
2013-04-03 12:40:00,51.6,39.0,30.62,NE,45,2.0,6.0,62,0.00,,,0.31,meteohub,2013-04-03 18:40:00,
2013-04-03 12:46:00,52.7,40.1,30.62,NE,45,4.0,6.0,62,0.00,,,0.31,meteohub,2013-04-03 18:46:00,
2013-04-03 12:51:00,52.2,36.5,30.62,NE,45,4.0,6.0,55,0.00,,,0.31,meteohub,2013-04-03 18:51:00,
2013-04-03 12:56:00,51.4,37.2,30.62,NE,45,4.0,5.0,58,0.00,,,0.31,meteohub,2013-04-03 18:56:00,
2013-04-03 13:02:00,51.6,37.4,30.62,East,90,3.0,7.0,58,0.00,,,0.31,meteohub,2013-04-03 19:02:00,
2013-04-03 13:07:00,51.6,36.9,30.61,SE,135,3.0,7.0,57,0.00,,,0.31,meteohub,2013-04-03 19:07:00,
2013-04-03 13:12:00,52.5,37.2,30.61,South,180,2.0,7.0,56,0.00,,,0.31,meteohub,2013-04-03 19:12:00,
2013-04-03 13:18:00,54.1,36.9,30.61,South,180,4.0,4.0,52,0.00,,,0.31,meteohub,2013-04-03 19:18:00,
2013-04-03 13:23:00,54.9,37.6,30.61,NE,45,2.0,5.0,52,0.00,,,0.31,meteohub,2013-04-03 19:23:00,
2013-04-03 13:28:00,55.4,38.1,30.60,NE,45,5.0,5.0,52,0.00,,,0.31,meteohub,2013-04-03 19:28:00,
2013-04-03 13:33:00,55.8,36.9,30.60,NE,45,4.0,5.0,49,0.00,,,0.31,meteohub,2013-04-03 19:33:00,
2013-04-03 13:39:00,55.4,35.4,30.60,NE,45,6.0,8.0,47,0.00,,,0.31,meteohub,2013-04-03 19:39:00,
2013-04-03 13:44:00,55.6,36.1,30.60,SW,225,2.0,8.0,48,0.00,,,0.31,meteohub,2013-04-03 19:44:00,
2013-04-03 13:49:00,56.7,37.2,30.60,NE,45,4.0,8.0,48,0.00,,,0.31,meteohub,2013-04-03 19:49:00,
2013-04-03 13:54:00,56.5,35.4,30.60,North,0,9.0,9.0,45,0.00,,,0.31,meteohub,2013-04-03 19:54:00,
2013-04-03 13:59:00,55.9,35.4,30.60,South,180,4.0,9.0,46,0.00,,,0.31,meteohub,2013-04-03 19:59:00,
2013-04-03 14:05:00,56.1,35.6,30.59,South,180,4.0,9.0,46,0.00,,,0.31,meteohub,2013-04-03 20:05:00,
2013-04-03 14:10:00,57.2,32.5,30.59,West,270,2.0,9.0,39,0.00,,,0.31,meteohub,2013-04-03 20:10:00,
2013-04-03 14:15:00,57.2,31.1,30.59,South,180,3.0,4.0,37,0.00,,,0.31,meteohub,2013-04-03 20:15:00,
2013-04-03 14:20:00,58.3,31.5,30.59,SE,135,4.0,4.0,36,0.00,,,0.31,meteohub,2013-04-03 20:20:00,
2013-04-03 14:26:00,58.6,31.1,30.58,NE,45,4.0,4.0,35,0.00,,,0.31,meteohub,2013-04-03 20:26:00,
2013-04-03 14:31:00,59.5,31.1,30.58,South,180,2.0,5.0,34,0.00,,,0.31,meteohub,2013-04-03 20:31:00,
2013-04-03 14:37:00,59.0,32.0,30.58,NE,45,2.0,5.0,36,0.00,,,0.31,meteohub,2013-04-03 20:37:00,
2013-04-03 14:42:00,57.6,29.5,30.58,North,0,8.0,8.0,34,0.00,,,0.31,meteohub,2013-04-03 20:42:00,
2013-04-03 14:47:00,56.1,29.5,30.58,North,0,3.0,10.0,36,0.00,,,0.31,meteohub,2013-04-03 20:47:00,
2013-04-03 14:52:00,55.9,30.0,30.58,NE,45,7.0,10.0,37,0.00,,,0.31,meteohub,2013-04-03 20:52:00,
2013-04-03 14:57:00,56.3,31.1,30.58,NNE,23,4.0,10.0,38,0.00,,,0.31,meteohub,2013-04-03 20:57:00,
2013-04-03 15:02:00,56.3,31.1,30.58,North,0,9.0,9.0,38,0.00,,,0.31,meteohub,2013-04-03 21:02:00,
2013-04-03 15:07:00,55.9,30.0,30.58,NW,315,5.0,9.0,37,0.00,,,0.31,meteohub,2013-04-03 21:07:00,
2013-04-03 15:13:00,55.6,28.4,30.58,South,180,6.0,14.0,35,0.00,,,0.31,meteohub,2013-04-03 21:13:00,
2013-04-03 15:18:00,55.2,28.8,30.58,North,0,8.0,14.0,36,0.00,,,0.31,meteohub,2013-04-03 21:18:00,
2013-04-03 15:25:00,55.2,30.0,30.58,West,270,4.0,11.0,38,0.00,,,0.31,meteohub,2013-04-03 21:25:00,
2013-04-03 15:31:00,54.7,31.5,30.59,West,270,5.0,11.0,41,0.00,,,0.31,meteohub,2013-04-03 21:31:00,
2013-04-03 15:36:00,54.1,31.5,30.59,SW,225,3.0,11.0,42,0.00,,,0.31,meteohub,2013-04-03 21:36:00,
2013-04-03 15:42:00,53.8,31.3,30.58,SW,225,5.0,11.0,42,0.00,,,0.31,meteohub,2013-04-03 21:42:00,
2013-04-03 15:47:00,53.4,30.9,30.58,SW,225,4.0,6.0,42,0.00,,,0.31,meteohub,2013-04-03 21:47:00,
2013-04-03 15:52:00,53.6,31.1,30.58,NE,45,4.0,8.0,42,0.00,,,0.31,meteohub,2013-04-03 21:52:00,
2013-04-03 15:57:00,54.9,32.7,30.58,South,180,4.0,8.0,43,0.00,,,0.31,meteohub,2013-04-03 21:57:00,
2013-04-03 16:02:00,55.6,31.6,30.58,South,180,4.0,6.0,40,0.00,,,0.31,meteohub,2013-04-03 22:02:00,
2013-04-03 16:07:00,55.6,31.6,30.58,South,180,4.0,8.0,40,0.00,,,0.31,meteohub,2013-04-03 22:07:00,
2013-04-03 16:12:00,57.7,30.9,30.59,SW,225,8.0,8.0,36,0.00,,,0.31,meteohub,2013-04-03 22:12:00,
2013-04-03 16:17:00,56.5,29.8,30.58,SE,135,4.0,8.0,36,0.00,,,0.31,meteohub,2013-04-03 22:17:00,
2013-04-03 16:22:00,57.2,31.1,30.59,South,180,6.0,10.0,37,0.00,,,0.31,meteohub,2013-04-03 22:22:00,
2013-04-03 16:27:00,58.3,31.5,30.58,South,180,4.0,10.0,36,0.00,,,0.31,meteohub,2013-04-03 22:27:00,
2013-04-03 16:32:00,58.3,30.7,30.58,SW,225,3.0,7.0,35,0.00,,,0.31,meteohub,2013-04-03 22:32:00,
2013-04-03 16:37:00,57.6,29.5,30.58,West,270,3.0,7.0,34,0.00,,,0.31,meteohub,2013-04-03 22:37:00,
2013-04-03 16:43:00,57.4,29.3,30.59,SE,135,2.0,7.0,34,0.00,,,0.31,meteohub,2013-04-03 22:43:00,
2013-04-03 16:48:00,57.4,30.0,30.59,NE,45,2.0,7.0,35,0.00,,,0.31,meteohub,2013-04-03 22:48:00,
2013-04-03 16:54:00,57.2,29.8,30.58,NE,45,2.0,4.0,35,0.00,,,0.31,meteohub,2013-04-03 22:54:00,
2013-04-03 16:59:00,57.4,29.3,30.58,North,0,7.0,7.0,34,0.00,,,0.31,meteohub,2013-04-03 22:59:00,
2013-04-03 17:05:00,57.2,29.1,30.58,North,0,7.0,8.0,34,0.00,,,0.31,meteohub,2013-04-03 23:05:00,
2013-04-03 17:10:00,57.2,29.1,30.58,NE,45,3.0,9.0,34,0.00,,,0.31,meteohub,2013-04-03 23:10:00,
2013-04-03 17:15:00,57.2,29.1,30.58,North,0,3.0,8.0,34,0.00,,,0.31,meteohub,2013-04-03 23:15:00,
2013-04-03 17:20:00,57.4,29.3,30.59,SW,225,3.0,7.0,34,0.00,,,0.31,meteohub,2013-04-03 23:20:00,
2013-04-03 17:26:00,57.6,27.1,30.58,NW,315,2.0,6.0,31,0.00,,,0.31,meteohub,2013-04-03 23:26:00,
2013-04-03 17:31:00,57.6,30.7,30.58,North,0,10.0,10.0,36,0.00,,,0.31,meteohub,2013-04-03 23:31:00,
2013-04-03 17:37:00,56.8,32.2,30.59,West,270,6.0,11.0,39,0.00,,,0.31,meteohub,2013-04-03 23:37:00,
2013-04-03 17:42:00,55.8,34.2,30.60,East,90,4.0,13.0,44,0.00,,,0.31,meteohub,2013-04-03 23:42:00,
2013-04-03 17:47:00,54.3,32.9,30.60,East,90,11.0,13.0,44,0.00,,,0.31,meteohub,2013-04-03 23:47:00,
2013-04-03 17:52:00,54.0,33.6,30.60,North,0,3.0,13.0,46,0.00,,,0.31,meteohub,2013-04-03 23:52:00,
2013-04-03 17:58:00,53.6,32.7,30.60,West,270,2.0,11.0,45,0.00,,,0.31,meteohub,2013-04-03 23:58:00,
2013-04-03 18:03:00,53.4,33.1,30.60,SSW,203,3.0,11.0,46,0.00,,,0.31,meteohub,2013-04-04 00:03:00,
2013-04-03 18:09:00,53.1,32.9,30.60,SW,225,5.0,7.0,46,0.00,,,0.31,meteohub,2013-04-04 00:09:00,
2013-04-03 18:14:00,53.1,32.4,30.61,South,180,4.0,5.0,45,0.00,,,0.31,meteohub,2013-04-04 00:14:00,
2013-04-03 18:19:00,53.2,31.8,30.61,East,90,7.0,7.0,44,0.00,,,0.31,meteohub,2013-04-04 00:19:00,
2013-04-03 18:25:00,53.4,32.0,30.61,North,0,7.0,7.0,44,0.00,,,0.31,meteohub,2013-04-04 00:25:00,
2013-04-03 18:30:00,53.4,30.9,30.61,SW,225,3.0,8.0,42,0.00,,,0.31,meteohub,2013-04-04 00:30:00,
2013-04-03 18:36:00,53.4,30.9,30.61,SW,225,4.0,8.0,42,0.00,,,0.31,meteohub,2013-04-04 00:36:00,
2013-04-03 18:41:00,53.4,30.9,30.61,SW,225,2.0,8.0,42,0.00,,,0.31,meteohub,2013-04-04 00:41:00,
2013-04-03 18:47:00,53.6,30.4,30.61,SW,225,2.0,7.0,41,0.00,,,0.31,meteohub,2013-04-04 00:47:00,
2013-04-03 18:52:00,53.4,30.9,30.61,SW,225,2.0,7.0,42,0.00,,,0.31,meteohub,2013-04-04 00:52:00,
2013-04-03 18:57:00,53.1,31.6,30.62,West,270,3.0,7.0,44,0.00,,,0.31,meteohub,2013-04-04 00:57:00,
2013-04-03 19:02:00,52.5,31.8,30.62,SW,225,3.0,4.0,45,0.00,,,0.31,meteohub,2013-04-04 01:02:00,
2013-04-03 19:07:00,51.8,32.7,30.62,NE,45,4.0,4.0,48,0.00,,,0.31,meteohub,2013-04-04 01:07:00,
2013-04-03 19:12:00,51.4,32.9,30.63,South,180,3.0,4.0,49,0.00,,,0.31,meteohub,2013-04-04 01:12:00,
2013-04-03 19:17:00,51.1,34.0,30.62,SW,225,3.0,8.0,52,0.00,,,0.31,meteohub,2013-04-04 01:17:00,
2013-04-03 19:22:00,50.5,34.0,30.62,SW,225,3.0,8.0,53,0.00,,,0.31,meteohub,2013-04-04 01:22:00,
2013-04-03 19:27:00,50.0,33.6,30.63,SW,225,4.0,8.0,53,0.00,,,0.31,meteohub,2013-04-04 01:27:00,
2013-04-03 19:32:00,49.6,33.6,30.63,SW,225,3.0,7.0,54,0.00,,,0.31,meteohub,2013-04-04 01:32:00,
2013-04-03 19:37:00,49.3,33.8,30.63,North,0,5.0,7.0,55,0.00,,,0.31,meteohub,2013-04-04 01:37:00,
2013-04-03 19:43:00,48.9,33.4,30.63,NW,315,4.0,7.0,55,0.00,,,0.31,meteohub,2013-04-04 01:43:00,
2013-04-03 19:48:00,48.7,33.8,30.64,South,180,2.0,7.0,56,0.00,,,0.31,meteohub,2013-04-04 01:48:00,
2013-04-03 19:53:00,48.2,33.3,30.64,SW,225,5.0,7.0,56,0.00,,,0.31,meteohub,2013-04-04 01:53:00,
2013-04-03 19:58:00,48.0,34.0,30.64,SW,225,5.0,7.0,58,0.00,,,0.31,meteohub,2013-04-04 01:58:00,
2013-04-03 20:04:00,48.0,34.0,30.65,SW,225,5.0,8.0,58,0.00,,,0.31,meteohub,2013-04-04 02:04:00,
2013-04-03 20:09:00,47.5,34.3,30.65,SW,225,4.0,8.0,60,0.00,,,0.31,meteohub,2013-04-04 02:09:00,
2013-04-03 20:14:00,45.9,33.3,30.65,South,180,2.0,8.0,61,0.00,,,0.31,meteohub,2013-04-04 02:14:00,
2013-04-03 20:20:00,44.6,32.4,30.65,SW,225,2.0,5.0,62,0.00,,,0.31,meteohub,2013-04-04 02:20:00,
2013-04-03 20:25:00,43.9,32.5,30.66,West,270,2.0,5.0,64,0.00,,,0.31,meteohub,2013-04-04 02:25:00,
2013-04-03 20:30:00,43.5,32.2,30.66,SE,135,2.0,4.0,64,0.00,,,0.31,meteohub,2013-04-04 02:30:00,
2013-04-03 20:35:00,43.0,32.4,30.66,SW,225,2.0,4.0,66,0.00,,,0.31,meteohub,2013-04-04 02:35:00,
2013-04-03 20:41:00,42.3,32.2,30.66,SW,225,2.0,4.0,67,0.00,,,0.31,meteohub,2013-04-04 02:41:00,
2013-04-03 20:46:00,41.7,31.6,30.66,South,180,2.0,2.0,67,0.00,,,0.31,meteohub,2013-04-04 02:46:00,
2013-04-03 20:51:00,40.8,31.5,30.67,South,180,0.0,2.0,69,0.00,,,0.31,meteohub,2013-04-04 02:51:00,
2013-04-03 20:57:00,39.7,30.7,30.67,SW,225,2.0,2.0,70,0.00,,,0.31,meteohub,2013-04-04 02:57:00,
2013-04-03 21:02:00,39.0,30.7,30.67,SW,225,0.0,2.0,72,0.00,,,0.31,meteohub,2013-04-04 03:02:00,
2013-04-03 21:07:00,38.7,30.7,30.68,SW,225,1.0,2.0,73,0.00,,,0.31,meteohub,2013-04-04 03:07:00,
2013-04-03 21:12:00,38.3,30.7,30.68,SW,225,0.0,2.0,74,0.00,,,0.31,meteohub,2013-04-04 03:12:00,
2013-04-03 21:17:00,37.9,30.7,30.69,North,0,1.0,2.0,75,0.00,,,0.31,meteohub,2013-04-04 03:17:00,
2013-04-03 21:23:00,37.8,30.6,30.69,SW,225,2.0,2.0,75,0.00,,,0.31,meteohub,2013-04-04 03:23:00,
2013-04-03 21:28:00,37.4,30.2,30.69,West,270,2.0,2.0,75,0.00,,,0.31,meteohub,2013-04-04 03:28:00,
2013-04-03 21:34:00,37.6,30.4,30.69,SW,225,1.0,2.0,75,0.00,,,0.31,meteohub,2013-04-04 03:34:00,
2013-04-03 21:39:00,37.0,28.6,30.69,SW,225,0.0,2.0,71,0.00,,,0.31,meteohub,2013-04-04 03:39:00,
2013-04-03 21:45:00,37.0,28.6,30.70,SW,225,1.0,2.0,71,0.00,,,0.31,meteohub,2013-04-04 03:45:00,
2013-04-03 21:50:00,36.9,28.4,30.70,SW,225,1.0,1.0,71,0.00,,,0.31,meteohub,2013-04-04 03:50:00,
2013-04-03 21:55:00,36.5,28.4,30.70,West,270,1.0,2.0,72,0.00,,,0.31,meteohub,2013-04-04 03:55:00,
2013-04-03 22:01:00,36.3,28.2,30.70,SW,225,2.0,2.0,72,0.00,,,0.31,meteohub,2013-04-04 04:01:00,
2013-04-03 22:02:00,36.3,28.2,30.71,SW,225,2.0,2.0,72,0.00,,,0.31,meteohub,2013-04-04 04:02:00,
2013-04-03 22:07:00,35.6,27.9,30.71,West,270,2.0,2.0,73,0.00,,,0.31,meteohub,2013-04-04 04:07:00,
2013-04-03 22:08:00,35.6,27.9,30.71,West,270,2.0,2.0,73,0.00,,,0.31,meteohub,2013-04-04 04:08:00,
2013-04-03 22:13:00,35.4,28.0,30.71,SW,225,2.0,2.0,74,0.00,,,0.31,meteohub,2013-04-04 04:13:00,
2013-04-03 22:18:00,35.1,27.7,30.71,East,90,1.0,2.0,74,0.00,,,0.31,meteohub,2013-04-04 04:18:00,
2013-04-03 22:23:00,34.7,27.3,30.71,West,270,2.0,2.0,74,0.00,,,0.31,meteohub,2013-04-04 04:23:00,
2013-04-03 22:28:00,34.2,27.1,30.71,West,270,2.0,2.0,75,0.00,,,0.31,meteohub,2013-04-04 04:28:00,
2013-04-03 22:34:00,34.0,27.0,30.71,SW,225,2.0,2.0,75,0.00,,,0.31,meteohub,2013-04-04 04:34:00,
2013-04-03 22:39:00,34.0,27.1,30.71,South,180,0.0,2.0,76,0.00,,,0.31,meteohub,2013-04-04 04:39:00,
2013-04-03 22:45:00,33.6,26.8,30.71,South,180,2.0,2.0,76,0.00,,,0.31,meteohub,2013-04-04 04:45:00,
2013-04-03 22:50:00,33.1,26.6,30.71,SW,225,1.0,2.0,77,0.00,,,0.31,meteohub,2013-04-04 04:50:00,
2013-04-03 22:55:00,32.7,26.2,30.72,SW,225,1.0,2.0,77,0.00,,,0.31,meteohub,2013-04-04 04:55:00,
2013-04-03 23:01:00,32.5,26.1,30.72,SW,225,1.0,2.0,77,0.00,,,0.31,meteohub,2013-04-04 05:01:00,
2013-04-03 23:06:00,32.4,26.2,30.72,SW,225,2.0,2.0,78,0.00,,,0.31,meteohub,2013-04-04 05:06:00,
2013-04-03 23:11:00,32.0,25.9,30.72,WSW,248,2.0,2.0,78,0.00,,,0.31,meteohub,2013-04-04 05:11:00,
2013-04-03 23:17:00,32.2,26.1,30.72,West,270,2.0,2.0,78,0.00,,,0.31,meteohub,2013-04-04 05:17:00,
2013-04-03 23:23:00,31.8,26.4,30.72,SW,225,0.0,2.0,80,0.00,,,0.31,meteohub,2013-04-04 05:23:00,
2013-04-03 23:28:00,31.5,26.1,30.72,SW,225,0.0,2.0,80,0.00,,,0.31,meteohub,2013-04-04 05:28:00,
2013-04-03 23:34:00,31.3,25.9,30.72,SW,225,1.0,2.0,80,0.00,,,0.31,meteohub,2013-04-04 05:34:00,
2013-04-03 23:40:00,30.7,25.3,30.72,SW,225,0.0,2.0,80,0.00,,,0.31,meteohub,2013-04-04 05:40:00,
2013-04-03 23:45:00,30.4,25.0,30.72,SW,225,2.0,2.0,80,0.00,,,0.31,meteohub,2013-04-04 05:45:00,
2013-04-03 23:51:00,30.0,25.0,30.72,SW,225,0.0,2.0,81,0.00,,,0.31,meteohub,2013-04-04 05:51:00,
2013-04-03 23:56:00,29.8,24.8,30.73,SW,225,1.0,2.0,81,0.00,,,0.31,meteohub,2013-04-04 05:56:00,